createdAt,value
2022-10-09T00:01:07.842Z,14.30
2022-10-09T00:03:35.901Z,14.30
2022-10-09T00:06:03.146Z,14.29
2022-10-09T00:08:30.370Z,14.29
2022-10-09T00:10:57.196Z,14.27
2022-10-09T00:13:23.953Z,14.26
2022-10-09T00:15:50.731Z,14.25
2022-10-09T00:18:18.468Z,14.24
2022-10-09T00:20:46.624Z,14.22
2022-10-09T00:23:18.312Z,14.23
2022-10-09T00:25:59.619Z,14.20
2022-10-09T00:28:28.765Z,14.19
2022-10-09T00:30:55.903Z,14.15
2022-10-09T00:33:23.021Z,14.14
2022-10-09T00:35:49.727Z,14.13
2022-10-09T00:38:24.650Z,14.11
2022-10-09T00:40:53.255Z,14.11
2022-10-09T00:43:57.638Z,14.09
2022-10-09T00:46:27.437Z,14.08
2022-10-09T00:49:03.073Z,14.06
2022-10-09T00:51:30.791Z,14.04
2022-10-09T00:53:57.970Z,14.03
2022-10-09T00:56:25.535Z,14.00
2022-10-09T00:58:54.864Z,13.97
2022-10-09T01:01:21.844Z,13.96
2022-10-09T01:03:48.561Z,13.95
2022-10-09T01:06:29.943Z,13.93
2022-10-09T01:09:07.395Z,13.91
2022-10-09T01:11:49.278Z,13.90
2022-10-09T01:14:29.046Z,13.90
2022-10-09T01:17:18.992Z,13.87
2022-10-09T01:20:16.535Z,13.83
2022-10-09T01:23:07.720Z,13.78
2022-10-09T01:25:57.517Z,13.77
2022-10-09T01:28:29.128Z,13.75
2022-10-09T01:30:58.659Z,13.72
2022-10-09T01:33:26.672Z,13.71
2022-10-09T01:35:53.792Z,13.68
2022-10-09T01:38:20.722Z,13.67
2022-10-09T01:40:47.553Z,13.63
2022-10-09T01:43:14.403Z,13.61
2022-10-09T01:45:51.424Z,13.58
2022-10-09T01:48:25.162Z,13.56
2022-10-09T01:50:56.334Z,13.54
2022-10-09T01:53:24.328Z,13.52
2022-10-09T01:56:03.032Z,13.49
2022-10-09T01:58:42.223Z,13.48
2022-10-09T02:01:14.147Z,13.44
2022-10-09T02:03:43.009Z,13.42
2022-10-09T02:06:11.798Z,13.40
2022-10-09T02:08:39.386Z,13.38
2022-10-09T02:11:06.712Z,13.35
2022-10-09T02:13:34.644Z,13.32
2022-10-09T02:16:01.305Z,13.31
2022-10-09T02:18:40.492Z,13.27
2022-10-09T02:21:15.469Z,13.24
2022-10-09T02:23:43.428Z,13.22
2022-10-09T02:26:10.348Z,13.19
2022-10-09T02:28:37.596Z,13.16
2022-10-09T02:31:13.430Z,13.15
2022-10-09T02:33:40.196Z,13.13
2022-10-09T02:36:06.907Z,13.10
2022-10-09T02:38:33.629Z,13.08
2022-10-09T02:41:01.010Z,13.05
2022-10-09T02:43:28.291Z,13.03
2022-10-09T02:45:55.063Z,13.00
2022-10-09T02:48:21.816Z,12.98
2022-10-09T02:50:48.522Z,12.96
2022-10-09T02:53:15.302Z,12.93
2022-10-09T02:55:42.103Z,12.92
2022-10-09T02:58:08.832Z,12.89
2022-10-09T03:00:38.025Z,12.85
2022-10-09T03:03:05.007Z,12.84
2022-10-09T03:05:31.719Z,12.82
2022-10-09T03:07:58.764Z,12.80
2022-10-09T03:10:25.426Z,12.77
2022-10-09T03:12:52.261Z,12.75
2022-10-09T03:15:18.962Z,12.72
2022-10-09T03:17:45.706Z,12.70
2022-10-09T03:20:12.403Z,12.70
2022-10-09T03:22:39.163Z,12.66
2022-10-09T03:25:06.431Z,12.62
2022-10-09T03:27:33.235Z,12.62
2022-10-09T03:29:59.911Z,12.61
2022-10-09T03:32:26.814Z,12.57
2022-10-09T03:34:53.498Z,12.56
2022-10-09T03:37:20.373Z,12.52
2022-10-09T03:39:47.052Z,12.50
2022-10-09T03:42:13.896Z,12.48
2022-10-09T03:44:40.630Z,12.46
2022-10-09T03:47:07.394Z,12.44
2022-10-09T03:49:34.061Z,12.43
2022-10-09T03:52:00.827Z,12.41
2022-10-09T03:54:27.504Z,12.39
2022-10-09T03:56:54.245Z,12.36
2022-10-09T03:59:20.942Z,12.36
2022-10-09T04:01:47.696Z,12.34
2022-10-09T04:04:14.444Z,12.31
2022-10-09T04:06:41.324Z,12.29
2022-10-09T04:09:08.019Z,12.27
2022-10-09T04:11:34.803Z,12.24
2022-10-09T04:14:01.547Z,12.23
2022-10-09T04:16:28.346Z,12.21
2022-10-09T04:18:55.043Z,12.19
2022-10-09T04:21:21.767Z,12.18
2022-10-09T04:23:48.389Z,12.16
2022-10-09T04:26:15.121Z,12.14
2022-10-09T04:28:42.090Z,12.12
2022-10-09T04:31:08.954Z,12.11
2022-10-09T04:33:35.708Z,12.10
2022-10-09T04:36:02.435Z,12.07
2022-10-09T04:38:31.107Z,12.04
2022-10-09T04:41:02.054Z,12.04
2022-10-09T04:43:29.258Z,12.02
2022-10-09T04:45:56.332Z,12.01
2022-10-09T04:48:23.416Z,11.99
2022-10-09T04:50:50.143Z,11.98
2022-10-09T04:53:17.089Z,11.97
2022-10-09T04:55:44.522Z,11.96
2022-10-09T04:58:12.771Z,11.94
2022-10-09T05:00:43.377Z,11.92
2022-10-09T05:03:10.539Z,11.93
2022-10-09T05:05:37.539Z,11.92
2022-10-09T05:08:04.373Z,11.91
2022-10-09T05:10:34.209Z,11.88
2022-10-09T05:13:01.438Z,11.89
2022-10-09T05:15:28.252Z,11.85
2022-10-09T05:17:55.014Z,11.84
2022-10-09T05:20:21.877Z,11.81
2022-10-09T05:22:49.013Z,11.79
2022-10-09T05:25:15.884Z,11.77
2022-10-09T05:27:42.612Z,11.76
2022-10-09T05:30:10.004Z,11.75
2022-10-09T05:32:36.866Z,11.73
2022-10-09T05:35:04.427Z,11.72
2022-10-09T05:37:31.211Z,11.72
2022-10-09T05:39:57.906Z,11.70
2022-10-09T05:42:24.656Z,11.67
2022-10-09T05:44:51.322Z,11.65
2022-10-09T05:47:19.743Z,11.64
2022-10-09T05:49:46.731Z,11.62
2022-10-09T05:52:13.535Z,11.60
2022-10-09T05:54:41.983Z,11.58
2022-10-09T05:57:09.639Z,11.55
2022-10-09T05:59:36.248Z,11.23
2022-10-09T06:02:03.276Z,10.88
2022-10-09T06:04:30.057Z,10.51
2022-10-09T06:06:56.820Z,10.22
2022-10-09T06:09:25.550Z,10.02
2022-10-09T06:11:53.470Z,9.83
2022-10-09T06:14:24.592Z,9.55
2022-10-09T06:16:51.467Z,9.41
2022-10-09T06:19:19.430Z,9.36
2022-10-09T06:21:47.211Z,9.30
2022-10-09T06:24:27.353Z,9.16
2022-10-09T06:26:55.403Z,9.06
2022-10-09T06:29:22.080Z,8.96
2022-10-09T06:31:48.819Z,8.92
2022-10-09T06:34:15.464Z,8.88
2022-10-09T06:36:42.227Z,8.89
2022-10-09T06:39:10.262Z,8.83
2022-10-09T06:41:37.150Z,8.75
2022-10-09T06:44:17.937Z,8.62
2022-10-09T06:46:46.261Z,8.66
2022-10-09T06:49:13.244Z,8.65
2022-10-09T06:51:40.103Z,8.72
2022-10-09T06:54:12.331Z,8.83
2022-10-09T06:56:39.571Z,8.90
2022-10-09T06:59:07.564Z,8.99
2022-10-09T07:01:34.602Z,9.08
2022-10-09T07:04:07.090Z,9.11
2022-10-09T07:06:37.924Z,9.15
2022-10-09T07:09:05.809Z,9.27
2022-10-09T07:11:34.996Z,9.30
2022-10-09T07:14:03.676Z,9.35
2022-10-09T07:16:32.939Z,9.48
2022-10-09T07:19:06.477Z,9.57
2022-10-09T07:21:37.085Z,9.67
2022-10-09T07:24:04.736Z,9.66
2022-10-09T07:26:34.389Z,9.67
2022-10-09T07:29:01.927Z,9.85
2022-10-09T07:31:29.158Z,10.08
2022-10-09T07:33:57.040Z,10.20
2022-10-09T07:36:24.210Z,10.35
2022-10-09T07:38:53.031Z,10.44
2022-10-09T07:41:20.635Z,10.61
2022-10-09T07:43:47.686Z,10.79
2022-10-09T07:46:17.649Z,10.94
2022-10-09T07:48:45.166Z,11.10
2022-10-09T07:51:24.353Z,11.25
2022-10-09T07:53:52.614Z,11.39
2022-10-09T07:56:26.051Z,11.52
2022-10-09T07:58:55.042Z,11.68
2022-10-09T08:01:23.018Z,11.84
2022-10-09T08:03:50.358Z,11.96
2022-10-09T08:06:17.963Z,12.07
2022-10-09T08:08:45.168Z,12.16
2022-10-09T08:11:14.657Z,12.29
2022-10-09T08:13:41.992Z,12.42
2022-10-09T08:16:09.284Z,12.52
2022-10-09T08:18:36.522Z,12.67
2022-10-09T08:21:11.792Z,12.80
2022-10-09T08:23:38.825Z,12.92
2022-10-09T08:26:15.423Z,13.02
2022-10-09T08:28:43.042Z,13.18
2022-10-09T08:31:14.806Z,13.31
2022-10-09T08:33:41.807Z,13.43
2022-10-09T08:36:10.361Z,13.53
2022-10-09T08:38:47.275Z,13.64
2022-10-09T08:41:40.669Z,13.74
2022-10-09T08:44:25.459Z,13.81
2022-10-09T08:47:08.410Z,13.90
2022-10-09T08:49:56.607Z,14.01
2022-10-09T08:52:32.183Z,14.11
2022-10-09T08:55:22.192Z,14.20
2022-10-09T08:57:52.405Z,14.29
2022-10-09T09:00:32.326Z,14.39
2022-10-09T09:03:11.825Z,14.52
2022-10-09T09:06:07.708Z,14.61
2022-10-09T09:08:48.759Z,14.67
2022-10-09T09:11:36.561Z,14.76
2022-10-09T09:14:23.600Z,14.85
2022-10-09T09:16:55.273Z,14.97
2022-10-09T09:19:47.963Z,15.06
2022-10-09T09:22:16.193Z,15.20
2022-10-09T09:24:54.378Z,15.33
2022-10-09T09:27:33.747Z,15.44
2022-10-09T09:30:12.108Z,15.57
2022-10-09T09:32:45.207Z,15.65
2022-10-09T09:35:33.240Z,15.71
2022-10-09T09:38:00.241Z,15.83
2022-10-09T09:40:36.770Z,15.93
2022-10-09T09:43:13.436Z,16.02
2022-10-09T09:45:40.185Z,16.11
2022-10-09T09:48:13.261Z,16.18
2022-10-09T09:50:50.541Z,16.28
2022-10-09T09:53:36.714Z,16.32
2022-10-09T09:56:04.265Z,16.40
2022-10-09T09:58:35.062Z,16.45
2022-10-09T10:01:03.490Z,16.52
2022-10-09T10:03:31.083Z,16.60
2022-10-09T10:05:59.374Z,16.66
2022-10-09T10:08:26.085Z,16.75
2022-10-09T10:10:55.258Z,16.82
2022-10-09T10:13:43.916Z,16.86
2022-10-09T10:16:21.082Z,16.95
2022-10-09T10:18:47.939Z,17.02
2022-10-09T10:21:17.295Z,17.07
2022-10-09T10:23:49.278Z,17.14
2022-10-09T10:26:40.218Z,17.22
2022-10-09T10:29:15.237Z,17.28
2022-10-09T10:32:05.076Z,17.35
2022-10-09T10:34:46.540Z,17.35
2022-10-09T10:37:13.228Z,17.45
2022-10-09T10:39:45.815Z,17.54
2022-10-09T10:42:21.479Z,17.66
2022-10-09T10:44:55.154Z,17.75
2022-10-09T10:47:24.570Z,17.84
2022-10-09T10:49:51.331Z,17.92
2022-10-09T10:52:31.338Z,17.93
2022-10-09T10:55:11.672Z,17.95
2022-10-09T10:58:17.059Z,17.97
2022-10-09T11:00:51.986Z,18.03
2022-10-09T11:03:34.759Z,18.08
2022-10-09T11:06:12.599Z,18.20
2022-10-09T11:09:03.963Z,18.31
2022-10-09T11:11:33.611Z,18.37
2022-10-09T11:14:29.500Z,18.37
2022-10-09T11:17:10.134Z,18.41
2022-10-09T11:19:55.168Z,18.43
2022-10-09T11:22:36.923Z,18.48
2022-10-09T11:25:13.319Z,18.51
2022-10-09T11:27:46.579Z,18.55
2022-10-09T11:30:15.707Z,18.66
2022-10-09T11:33:17.087Z,18.77
2022-10-09T11:35:50.398Z,18.83
2022-10-09T11:38:31.786Z,18.91
2022-10-09T11:41:00.048Z,18.92
2022-10-09T11:43:35.031Z,18.93
2022-10-09T11:46:25.798Z,18.96
2022-10-09T11:49:21.759Z,19.00
2022-10-09T11:52:11.418Z,19.01
2022-10-09T11:54:38.155Z,18.99
2022-10-09T11:57:06.304Z,18.98
2022-10-09T11:59:36.787Z,19.05
2022-10-09T12:02:26.439Z,19.14
2022-10-09T12:04:56.217Z,19.14
2022-10-09T12:07:32.055Z,19.16
2022-10-09T12:10:21.405Z,19.14
2022-10-09T12:12:59.442Z,19.21
2022-10-09T12:15:48.625Z,19.29
2022-10-09T12:18:21.184Z,19.40
2022-10-09T12:20:49.335Z,19.44
2022-10-09T12:23:28.063Z,19.46
2022-10-09T12:25:55.771Z,19.47
2022-10-09T12:28:28.151Z,19.47
2022-10-09T12:30:56.080Z,19.51
2022-10-09T12:33:27.068Z,19.55
2022-10-09T12:36:15.524Z,19.63
2022-10-09T12:38:42.816Z,19.65
2022-10-09T12:41:25.814Z,19.67
2022-10-09T12:43:54.692Z,19.66
2022-10-09T12:46:34.104Z,19.66
2022-10-09T12:49:04.100Z,19.66
2022-10-09T12:51:32.756Z,19.66
2022-10-09T12:53:59.853Z,19.69
2022-10-09T12:56:32.976Z,19.71
2022-10-09T12:59:01.090Z,19.77
2022-10-09T13:01:28.547Z,19.82
2022-10-09T13:04:03.490Z,19.87
2022-10-09T13:06:38.316Z,19.93
2022-10-09T13:09:07.355Z,19.95
2022-10-09T13:11:37.216Z,19.96
2022-10-09T13:14:04.126Z,19.96
2022-10-09T13:16:41.851Z,20.00
2022-10-09T13:19:20.541Z,20.01
2022-10-09T13:21:47.337Z,20.05
2022-10-09T13:24:14.023Z,20.04
2022-10-09T13:26:42.957Z,20.03
2022-10-09T13:29:09.628Z,20.09
2022-10-09T13:31:37.051Z,20.12
2022-10-09T13:34:12.236Z,20.17
2022-10-09T13:36:39.123Z,20.17
2022-10-09T13:39:06.245Z,20.14
2022-10-09T13:41:33.302Z,20.17
2022-10-09T13:43:59.971Z,20.17
2022-10-09T13:46:26.859Z,20.20
2022-10-09T13:48:53.636Z,20.24
2022-10-09T13:51:20.414Z,20.24
2022-10-09T13:53:47.094Z,20.21
2022-10-09T13:56:13.837Z,20.25
2022-10-09T13:58:40.515Z,20.26
2022-10-09T14:01:08.592Z,20.27
2022-10-09T14:03:35.906Z,20.29
2022-10-09T14:06:08.322Z,20.32
2022-10-09T14:08:35.086Z,20.33
2022-10-09T14:11:02.920Z,20.34
2022-10-09T14:13:29.892Z,20.41
2022-10-09T14:15:56.591Z,20.49
2022-10-09T14:18:23.384Z,20.54
2022-10-09T14:20:50.211Z,20.58
2022-10-09T14:23:16.929Z,20.63
2022-10-09T14:25:43.564Z,20.66
2022-10-09T14:28:10.314Z,20.70
2022-10-09T14:30:40.580Z,20.71
2022-10-09T14:33:07.418Z,20.78
2022-10-09T14:35:34.147Z,20.72
2022-10-09T14:38:01.095Z,20.67
2022-10-09T14:40:27.733Z,20.67
2022-10-09T14:42:54.457Z,20.74
2022-10-09T14:45:21.178Z,20.75
2022-10-09T14:47:47.912Z,20.69
2022-10-09T14:50:14.626Z,20.66
2022-10-09T14:52:45.661Z,20.65
2022-10-09T14:55:13.863Z,20.65
2022-10-09T14:57:40.519Z,20.61
2022-10-09T15:00:08.815Z,20.56
2022-10-09T15:02:35.575Z,20.32
2022-10-09T15:05:02.411Z,20.13
2022-10-09T15:07:29.266Z,19.95
2022-10-09T15:09:56.959Z,19.82
2022-10-09T15:12:23.916Z,19.70
2022-10-09T15:14:52.204Z,19.62
2022-10-09T15:17:18.880Z,19.55
2022-10-09T15:19:45.612Z,19.47
2022-10-09T15:22:12.304Z,19.42
2022-10-09T15:24:38.957Z,19.33
2022-10-09T15:27:05.767Z,19.25
2022-10-09T15:29:32.453Z,19.18
2022-10-09T15:31:59.440Z,19.04
2022-10-09T15:34:26.864Z,18.97
2022-10-09T15:36:53.601Z,18.88
2022-10-09T15:39:20.367Z,18.81
2022-10-09T15:41:47.149Z,18.80
2022-10-09T15:44:17.682Z,18.76
2022-10-09T15:46:45.022Z,18.66
2022-10-09T15:49:12.191Z,18.58
2022-10-09T15:51:38.953Z,18.56
2022-10-09T15:54:06.222Z,18.52
2022-10-09T15:56:40.300Z,18.46
2022-10-09T15:59:12.690Z,18.40
2022-10-09T16:01:39.633Z,18.26
2022-10-09T16:04:06.448Z,18.16
2022-10-09T16:06:33.248Z,18.08
2022-10-09T16:09:00.943Z,17.99
2022-10-09T16:11:27.753Z,17.88
2022-10-09T16:13:56.039Z,17.68
2022-10-09T16:16:26.097Z,17.54
2022-10-09T16:18:52.978Z,17.46
2022-10-09T16:21:24.499Z,17.29
2022-10-09T16:23:57.386Z,17.17
2022-10-09T16:26:26.555Z,17.11
2022-10-09T16:28:53.315Z,17.01
2022-10-09T16:31:29.026Z,16.84
2022-10-09T16:33:56.446Z,16.74
2022-10-09T16:36:23.110Z,16.65
2022-10-09T16:38:49.842Z,16.53
2022-10-09T16:41:18.966Z,16.46
2022-10-09T16:43:47.994Z,16.27
2022-10-09T16:46:25.538Z,16.26
2022-10-09T16:48:53.391Z,16.23
2022-10-09T16:51:22.682Z,16.09
2022-10-09T16:53:53.331Z,15.92
2022-10-09T16:56:22.772Z,15.80
2022-10-09T16:58:49.469Z,15.75
2022-10-09T17:01:16.261Z,15.79
2022-10-09T17:03:43.016Z,15.69
2022-10-09T17:06:12.527Z,15.53
2022-10-09T17:08:39.591Z,15.46
2022-10-09T17:11:10.579Z,15.42
2022-10-09T17:13:37.920Z,15.42
2022-10-09T17:16:09.024Z,15.34
2022-10-09T17:18:36.396Z,15.32
2022-10-09T17:21:05.324Z,15.32
2022-10-09T17:23:32.443Z,15.31
2022-10-09T17:26:00.495Z,15.28
2022-10-09T17:28:27.456Z,15.26
2022-10-09T17:30:54.182Z,15.15
2022-10-09T17:33:23.356Z,15.07
2022-10-09T17:35:50.539Z,15.05
2022-10-09T17:38:17.282Z,15.10
2022-10-09T17:40:44.147Z,15.20
2022-10-09T17:43:11.035Z,15.29
2022-10-09T17:45:42.039Z,15.37
2022-10-09T17:48:10.116Z,15.45
2022-10-09T17:50:36.951Z,15.53
2022-10-09T17:53:04.124Z,15.60
2022-10-09T17:55:31.196Z,15.65
2022-10-09T17:57:57.956Z,15.70
2022-10-09T18:00:24.592Z,15.75
2022-10-09T18:02:51.344Z,15.79
2022-10-09T18:05:18.127Z,15.83
2022-10-09T18:07:44.845Z,15.87
2022-10-09T18:10:11.520Z,15.90
2022-10-09T18:12:38.500Z,15.92
2022-10-09T18:15:05.460Z,15.94
2022-10-09T18:17:34.405Z,15.97
2022-10-09T18:20:01.079Z,16.00
2022-10-09T18:22:27.826Z,16.02
2022-10-09T18:24:54.452Z,16.03
2022-10-09T18:27:21.459Z,16.04
2022-10-09T18:29:48.331Z,16.05
2022-10-09T18:32:15.258Z,16.05
2022-10-09T18:34:46.248Z,16.05
2022-10-09T18:37:13.837Z,16.06
2022-10-09T18:39:40.634Z,16.06
2022-10-09T18:42:07.599Z,16.05
2022-10-09T18:44:40.374Z,16.05
2022-10-09T18:47:17.786Z,16.05
2022-10-09T18:49:56.966Z,16.04
2022-10-09T18:52:37.013Z,16.03
2022-10-09T18:55:06.806Z,16.03
2022-10-09T18:57:40.605Z,16.02
2022-10-09T19:00:09.073Z,16.02
2022-10-09T19:05:10.658Z,15.99
2022-10-09T19:07:41.747Z,15.98
2022-10-09T19:10:11.331Z,15.98
2022-10-09T19:12:39.729Z,15.98
2022-10-09T19:15:11.718Z,15.96
2022-10-09T19:17:39.664Z,15.96
2022-10-09T19:20:06.963Z,15.94
2022-10-09T19:22:33.688Z,15.93
2022-10-09T19:25:01.311Z,15.92
2022-10-09T19:27:28.331Z,15.89
2022-10-09T19:29:55.031Z,15.90
2022-10-09T19:32:23.978Z,15.89
2022-10-09T19:34:50.898Z,15.87
2022-10-09T19:37:17.635Z,15.85
2022-10-09T19:39:48.491Z,15.85
2022-10-09T19:42:18.655Z,15.83
2022-10-09T19:44:46.079Z,15.84
2022-10-09T19:47:13.843Z,15.82
2022-10-09T19:49:40.696Z,15.80
2022-10-09T19:52:07.791Z,15.79
2022-10-09T19:54:35.480Z,15.77
2022-10-09T19:57:02.430Z,15.77
2022-10-09T19:59:29.218Z,15.76
2022-10-09T20:01:57.624Z,15.74
2022-10-09T20:04:24.857Z,15.73
2022-10-09T20:06:51.801Z,15.70
2022-10-09T20:09:18.687Z,15.70
2022-10-09T20:11:45.416Z,15.68
2022-10-09T20:14:12.162Z,15.67
2022-10-09T20:16:39.144Z,15.66
2022-10-09T20:19:05.926Z,15.63
2022-10-09T20:21:33.727Z,15.62
2022-10-09T20:24:01.402Z,15.61
2022-10-09T20:26:29.830Z,15.59
2022-10-09T20:28:56.671Z,15.58
2022-10-09T20:31:25.482Z,15.56
2022-10-09T20:33:53.282Z,15.54
2022-10-09T20:36:21.167Z,15.54
2022-10-09T20:38:47.915Z,15.51
2022-10-09T20:41:14.965Z,15.50
2022-10-09T20:43:41.955Z,15.49
2022-10-09T20:46:10.527Z,15.46
2022-10-09T20:48:37.252Z,15.45
2022-10-09T20:51:04.647Z,15.43
2022-10-09T20:53:31.579Z,15.41
2022-10-09T20:56:02.383Z,15.40
2022-10-09T20:58:29.344Z,15.40
2022-10-09T21:00:56.342Z,15.38
2022-10-09T21:03:23.287Z,15.36
2022-10-09T21:05:50.096Z,15.36
2022-10-09T21:08:16.928Z,15.35
2022-10-09T21:10:47.642Z,15.32
2022-10-09T21:13:14.619Z,15.32
2022-10-09T21:15:43.725Z,15.30
2022-10-09T21:18:11.197Z,15.28
2022-10-09T21:20:43.179Z,15.25
2022-10-09T21:23:11.252Z,15.24
2022-10-09T21:25:38.484Z,15.23
2022-10-09T21:28:06.024Z,15.21
2022-10-09T21:30:41.206Z,15.18
2022-10-09T21:33:09.442Z,15.17
2022-10-09T21:35:44.524Z,15.14
2022-10-09T21:38:17.695Z,15.13
2022-10-09T21:40:45.169Z,15.11
2022-10-09T21:43:12.154Z,15.12
2022-10-09T21:45:39.723Z,15.07
2022-10-09T21:48:07.267Z,15.06
2022-10-09T21:50:36.320Z,15.05
2022-10-09T21:53:03.635Z,15.03
2022-10-09T21:55:30.351Z,15.02
2022-10-09T21:57:56.984Z,15.00
2022-10-09T22:00:23.737Z,14.98
2022-10-09T22:02:50.565Z,14.98
2022-10-09T22:05:17.542Z,14.96
2022-10-09T22:07:44.225Z,14.93
2022-10-09T22:10:10.946Z,14.90
2022-10-09T22:12:37.651Z,14.90
2022-10-09T22:15:05.141Z,14.88
2022-10-09T22:17:31.851Z,14.87
2022-10-09T22:19:58.579Z,14.85
2022-10-09T22:22:25.457Z,14.83
2022-10-09T22:24:52.290Z,14.82
2022-10-09T22:27:20.081Z,14.80
2022-10-09T22:29:46.826Z,14.79
2022-10-09T22:32:13.619Z,14.78
2022-10-09T22:34:40.327Z,14.77
2022-10-09T22:37:07.057Z,14.75
2022-10-09T22:39:33.820Z,14.73
2022-10-09T22:42:00.443Z,14.71
2022-10-09T22:44:27.250Z,14.71
2022-10-09T22:46:54.043Z,14.70
2022-10-09T22:49:20.843Z,14.68
2022-10-09T22:51:47.491Z,14.67
2022-10-09T22:54:14.292Z,14.65
2022-10-09T22:56:43.675Z,14.62
2022-10-09T22:59:11.820Z,14.61
2022-10-09T23:02:01.587Z,14.60
2022-10-09T23:04:29.234Z,14.61
2022-10-09T23:06:57.570Z,14.59
2022-10-09T23:09:26.550Z,14.57
2022-10-09T23:11:53.424Z,14.55
2022-10-09T23:14:20.395Z,14.54
2022-10-09T23:16:47.183Z,14.53
2022-10-09T23:19:13.885Z,14.53
2022-10-09T23:21:42.547Z,14.51
2022-10-09T23:24:11.409Z,14.50
2022-10-09T23:26:38.504Z,14.50
2022-10-09T23:29:07.651Z,14.48
2022-10-09T23:31:35.652Z,14.48
2022-10-09T23:34:03.508Z,14.47
2022-10-09T23:36:30.239Z,14.47
2022-10-09T23:38:57.885Z,14.46
2022-10-09T23:41:26.485Z,14.43
2022-10-09T23:43:53.116Z,14.44
2022-10-09T23:46:27.950Z,14.41
2022-10-09T23:48:55.756Z,14.41
2022-10-09T23:51:23.711Z,14.41
2022-10-09T23:53:50.622Z,14.40
2022-10-09T23:56:25.930Z,14.38
2022-10-09T23:58:53.059Z,14.39
